Placerville, Idaho
Current Conditions -  °F | °C
As of 1:53 PM on Tuesday 21 Oct 2014 (Local Time) from KBOI Reporting Station
Broken Clouds Broken Clouds  
Wind Chill: 55°   Ceiling: 3600
Heat Index: 55°   Visibility: 10mi
Dew Point: 44°   Wind: 6mph
Humidity: 67%   Direction: 350°N
Pressure: 30.04"   Gusts: NA
Location:  43.94°N, 115.95°W
Report Text: KBOI 211953Z 35005KT 10SM FEW027 BKN036 BKN050 13/07 A3004 RMK AO2 SLP165 T01280067
Loading
Personal Weather Stations






























Interactive Weather Map
Tropical Storm Tracking
New forecast layout! Learn more

10-Day Weather Forecast

Advertisements
Track Severe Weather on mobile